Terminal Aerodrome Forecast
Issued by NWS

Home | Current Version | Previous Version | Text Only | Print | Product List | Glossary On
Versions: 1 2 3 4 5 6 7 8 9 10 11 12 13 14 15 16 17 18 19 20 21 22 23 24
000
FTUS41 KBUF 280527
TAFJHW
TAF
KJHW 280527Z 2806/2906 22007KT 4SM BR VCSH OVC060
     FM280900 27007KT 5SM BR VCSH BKN020
     FM281300 30005KT P6SM BKN130
     FM281700 35007KT P6SM SKC
     FM290100 03004KT P6SM SKC
     FM290400 07004KT P6SM SKC
      AMD LTD TO CLD VIS AND WIND=

USA.gov is the U.S. government's official web portal to all federal, state and local government web resources and services.